Terminal Aerodrome Forecast
Issued by NWS

Home | Current Version | Previous Version | Text Only | Print | Product List | Glossary On
Versions: 1 2 3 4 5 6 7 8 9 10 11 12 13 14 15 16 17 18 19 20 21 22 23 24 25 26 27 28 29 30
000
FTUS45 KGJT 222331
TAFMTJ
TAF
KMTJ 222331Z 2300/2324 18010KT P6SM VCSH FEW045 SCT080 OVC100
      TEMPO 2300/2302 VRB20G30KT -SHRA SCT040 BKN060
     FM230200 17009KT P6SM SCT090 BKN140
     FM231300 13005KT P6SM VCSH SCT070 BKN080
     FM231800 19010KT P6SM BKN060 OVC070=

USA.gov is the U.S. government's official web portal to all federal, state and local government web resources and services.